Time;durP1;ratioP1;P1;durP2;ratioP2;P2;SDS_P1;SDS_P2;PMS_P1;PMS_P2;Temp;Humidity;BMP_temperature;BMP_pressure;BME280_temperature;BME280_humidity;BME280_pressure;Samples;Min_cycle;Max_cycle;Signal;HPM_P1;HPM_P2
2022/08/20 03:01:04;;;;;;;0.70;0.50;;;22.00;76.70;;;;;;5932982;22;20511;-76
2022/08/20 03:03:31;;;;;;;0.80;0.60;;;21.90;76.80;;;;;;5033818;28;20528;-76
2022/08/20 03:05:59;;;;;;;0.70;0.60;;;22.00;76.70;;;;;;5033709;28;20447;-75
2022/08/20 03:08:27;;;;;;;0.70;0.60;;;22.00;76.70;;;;;;5033737;28;20439;-76
2022/08/20 03:10:54;;;;;;;0.80;0.60;;;22.10;76.50;;;;;;5033581;28;20558;-76
2022/08/20 03:13:22;;;;;;;0.70;0.60;;;22.00;76.60;;;;;;5033345;28;21000;-75
2022/08/20 03:15:53;;;;;;;0.70;0.50;;;22.10;76.70;;;;;;5034788;28;20950;-75
2022/08/20 03:18:22;;;;;;;0.70;0.50;;;22.00;76.70;;;;;;5033204;28;20976;-76
2022/08/20 03:20:49;;;;;;;0.70;0.60;;;22.00;76.70;;;;;;5033098;28;21004;-76
2022/08/20 03:23:18;;;;;;;0.70;0.60;;;22.00;76.80;;;;;;5033485;28;20446;-76
2022/08/20 03:25:45;;;;;;;0.70;0.60;;;22.00;76.70;;;;;;5033219;28;20930;-75
2022/08/20 03:28:12;;;;;;;0.70;0.60;;;22.10;76.60;;;;;;5033255;28;20984;-76
2022/08/20 03:30:40;;;;;;;0.70;0.60;;;22.10;76.50;;;;;;5033344;28;20505;-76
2022/08/20 03:33:08;;;;;;;0.70;0.60;;;22.00;76.70;;;;;;5033438;28;20451;-75
2022/08/20 03:35:37;;;;;;;0.70;0.60;;;22.00;76.80;;;;;;5033401;28;20490;-75
2022/08/20 03:38:07;;;;;;;0.70;0.60;;;21.90;76.90;;;;;;5033283;28;20840;-76
2022/08/20 03:40:34;;;;;;;0.70;0.60;;;21.90;76.90;;;;;;5033760;28;20452;-75
2022/08/20 03:43:02;;;;;;;0.70;0.50;;;22.00;76.80;;;;;;5033388;28;20443;-75
2022/08/20 03:45:29;;;;;;;0.70;0.50;;;22.00;76.80;;;;;;5033283;28;20501;-76
2022/08/20 03:47:57;;;;;;;0.70;0.60;;;22.00;76.70;;;;;;5033286;28;20866;-75
2022/08/20 03:50:27;;;;;;;0.70;0.50;;;22.00;76.70;;;;;;5032803;28;20969;-76
2022/08/20 03:52:56;;;;;;;0.70;0.50;;;22.10;76.60;;;;;;5036843;28;20435;-76
2022/08/20 03:55:24;;;;;;;0.70;0.60;;;22.00;76.80;;;;;;5037008;28;20919;-75
2022/08/20 03:57:55;;;;;;;0.70;0.50;;;21.90;76.90;;;;;;5036813;28;20993;-75
2022/08/20 04:00:24;;;;;;;0.70;0.50;;;21.60;78.00;;;;;;5037087;28;20431;-75
2022/08/20 04:02:51;;;;;;;0.70;0.50;;;21.60;77.80;;;;;;5036956;28;20463;-75
2022/08/20 04:05:18;;;;;;;0.70;0.60;;;21.60;78.00;;;;;;5037047;28;20451;-75
2022/08/20 04:07:45;;;;;;;0.70;0.60;;;21.70;77.90;;;;;;5036705;28;20934;-76
2022/08/20 04:10:13;;;;;;;1.00;0.60;;;21.80;77.70;;;;;;5036609;28;20973;-76
2022/08/20 04:12:39;;;;;;;0.70;0.60;;;21.80;77.40;;;;;;5036516;28;21009;-76
2022/08/20 04:15:09;;;;;;;0.70;0.50;;;21.90;77.30;;;;;;5037416;28;20443;-76
2022/08/20 04:17:37;;;;;;;1.40;0.60;;;21.80;77.30;;;;;;5036737;28;20528;-76
2022/08/20 04:20:05;;;;;;;0.70;0.60;;;21.70;77.60;;;;;;5036782;28;20807;-76
2022/08/20 04:22:32;;;;;;;0.70;0.60;;;21.70;77.80;;;;;;5036555;28;20558;-76
2022/08/20 04:24:59;;;;;;;0.70;0.60;;;21.60;77.70;;;;;;5036681;28;20505;-76
2022/08/20 04:27:27;;;;;;;0.70;0.50;;;21.40;78.50;;;;;;5036612;28;20454;-76
2022/08/20 04:29:54;;;;;;;0.70;0.60;;;21.40;78.60;;;;;;5036595;28;20487;-76
2022/08/20 04:32:21;;;;;;;0.70;0.57;;;21.30;78.90;;;;;;5036460;28;20471;-76
2022/08/20 04:34:50;;;;;;;0.70;0.60;;;21.40;78.80;;;;;;5036517;28;20486;-76
2022/08/20 04:37:21;;;;;;;1.13;0.60;;;21.40;78.80;;;;;;5036411;28;20838;-76
2022/08/20 04:40:52;;;;;;;0.70;0.60;;;21.40;78.90;;;;;;5036544;28;20518;-75
2022/08/20 04:42:36;;;;;;;0.70;0.60;;;21.20;79.40;;;;;;5035918;28;20517;-75
2022/08/20 04:45:05;;;;;;;0.80;0.57;;;21.20;79.40;;;;;;5037114;28;20454;-76
2022/08/20 04:47:32;;;;;;;0.70;0.60;;;21.20;79.60;;;;;;5035965;28;20954;-76
2022/08/20 04:49:59;;;;;;;0.70;0.60;;;21.20;79.40;;;;;;5035917;28;20782;-76
2022/08/20 04:52:26;;;;;;;2.03;0.80;;;21.30;79.20;;;;;;5036158;28;20559;-75
2022/08/20 04:54:55;;;;;;;0.70;0.57;;;21.50;78.80;;;;;;5036449;28;20439;-75
2022/08/20 04:57:24;;;;;;;0.70;0.60;;;21.60;78.50;;;;;;5036034;28;20537;-76
2022/08/20 04:59:53;;;;;;;0.70;0.67;;;21.60;78.20;;;;;;5035779;28;21008;-76
2022/08/20 05:02:20;;;;;;;0.70;0.60;;;21.70;78.20;;;;;;5035630;28;20475;-76
2022/08/20 05:04:47;;;;;;;0.70;0.60;;;21.60;78.20;;;;;;5036034;28;20881;-76
2022/08/20 05:07:15;;;;;;;0.70;0.60;;;21.70;78.20;;;;;;5035904;28;20440;-76
2022/08/20 05:09:42;;;;;;;0.70;0.60;;;21.50;78.40;;;;;;5035866;28;20448;-76
2022/08/20 05:12:11;;;;;;;0.70;0.60;;;21.50;78.70;;;;;;5035464;28;20475;-76
2022/08/20 05:14:37;;;;;;;0.70;0.60;;;21.50;78.80;;;;;;5036633;28;20806;-76
2022/08/20 05:17:06;;;;;;;0.70;0.60;;;21.50;78.80;;;;;;5035673;28;20494;-76
2022/08/20 05:19:36;;;;;;;0.80;0.80;;;21.40;79.00;;;;;;5035686;28;20448;-76
2022/08/20 05:22:03;;;;;;;0.70;0.60;;;21.50;78.90;;;;;;5035693;28;20529;-76
2022/08/20 05:24:31;;;;;;;0.70;0.60;;;21.50;78.90;;;;;;5035604;28;20497;-76
2022/08/20 05:26:59;;;;;;;0.70;0.70;;;21.50;78.80;;;;;;5035458;28;20448;-76
2022/08/20 05:29:26;;;;;;;0.70;0.50;;;21.60;78.80;;;;;;5035293;28;20997;-76
2022/08/20 05:31:54;;;;;;;0.80;0.70;;;21.50;78.60;;;;;;5035293;28;20893;-76
2022/08/20 05:34:23;;;;;;;1.87;0.90;;;21.50;78.90;;;;;;5035451;28;20466;-76
2022/08/20 05:36:51;;;;;;;0.70;0.60;;;21.60;78.80;;;;;;5035143;28;21057;-76
2022/08/20 05:39:19;;;;;;;0.70;0.70;;;21.70;78.70;;;;;;5035351;28;20487;-76
2022/08/20 05:41:50;;;;;;;0.80;0.70;;;21.50;79.40;;;;;;5035701;28;20471;-76
2022/08/20 05:44:17;;;;;;;0.70;0.60;;;21.50;80.00;;;;;;5035383;28;20430;-76
2022/08/20 05:46:47;;;;;;;0.70;0.70;;;21.60;79.80;;;;;;5035231;28;20463;-76
2022/08/20 05:49:17;;;;;;;0.70;0.60;;;21.60;79.80;;;;;;5035216;28;20451;-76
2022/08/20 05:51:46;;;;;;;0.80;0.63;;;21.80;79.60;;;;;;5034884;28;20471;-76
2022/08/20 05:54:13;;;;;;;0.70;0.60;;;21.80;79.70;;;;;;5035162;28;20447;-76
2022/08/20 05:56:40;;;;;;;0.70;0.60;;;21.90;79.50;;;;;;5035094;28;20454;-76
2022/08/20 05:59:09;;;;;;;0.70;0.60;;;21.70;79.90;;;;;;5035141;28;20486;-76
2022/08/20 06:01:38;;;;;;;0.70;0.60;;;21.70;80.10;;;;;;5034714;28;20487;-76
2022/08/20 06:06:51;;;;;;;0.80;0.80;;;21.70;80.30;;;;;;5034928;28;20420;-76
2022/08/20 06:09:19;;;;;;;0.70;0.60;;;21.90;80.50;;;;;;5034773;28;20498;-76
2022/08/20 06:11:47;;;;;;;0.70;0.60;;;22.00;80.30;;;;;;5034596;28;20499;-76
2022/08/20 06:14:15;;;;;;;0.70;0.70;;;22.30;79.50;;;;;;5034593;28;20452;-76
2022/08/20 06:16:42;;;;;;;0.70;0.60;;;22.50;79.10;;;;;;5034647;28;20451;-77
2022/08/20 06:19:09;;;;;;;0.70;0.70;;;22.80;77.90;;;;;;5034556;28;20854;-75
2022/08/20 06:21:36;;;;;;;0.70;0.60;;;22.90;77.60;;;;;;5034608;28;20467;-75
2022/08/20 06:24:05;;;;;;;0.70;0.60;;;23.00;76.10;;;;;;5034609;28;20452;-75
2022/08/20 06:26:33;;;;;;;0.70;0.60;;;22.90;76.70;;;;;;5034388;28;20547;-75
2022/08/20 06:28:59;;;;;;;0.70;0.70;;;22.90;76.60;;;;;;5034441;28;20444;-75
2022/08/20 06:31:26;;;;;;;0.70;0.70;;;22.90;76.80;;;;;;5034263;28;20467;-75
2022/08/20 06:33:53;;;;;;;0.70;0.60;;;22.90;76.70;;;;;;5034383;28;20534;-75
2022/08/20 06:36:20;;;;;;;0.97;0.60;;;22.90;76.80;;;;;;5034304;28;20502;-75
2022/08/20 06:38:46;;;;;;;0.70;0.70;;;23.00;76.90;;;;;;5034198;28;20486;-75
2022/08/20 06:41:15;;;;;;;0.90;0.60;;;23.10;77.00;;;;;;5034118;28;20467;-75
2022/08/20 06:43:41;;;;;;;0.70;0.70;;;22.80;77.20;;;;;;5034004;28;20451;-75
2022/08/20 06:46:08;;;;;;;0.87;0.60;;;22.80;77.60;;;;;;5034097;28;20451;-74
2022/08/20 06:48:35;;;;;;;0.70;0.60;;;22.90;77.20;;;;;;5034037;28;20493;-75
2022/08/20 06:51:02;;;;;;;0.80;0.67;;;22.80;77.20;;;;;;5033895;28;20890;-74
2022/08/20 06:53:28;;;;;;;0.70;0.70;;;22.80;77.70;;;;;;5033917;28;20506;-73
2022/08/20 06:55:56;;;;;;;0.70;0.70;;;22.50;78.10;;;;;;5033865;28;20448;-74
2022/08/20 06:58:25;;;;;;;0.80;0.70;;;22.40;78.60;;;;;;5033480;28;21021;-74
2022/08/20 07:00:52;;;;;;;0.80;0.70;;;22.40;79.10;;;;;;5033508;28;20525;-74
2022/08/20 07:03:18;;;;;;;0.70;0.67;;;22.40;78.70;;;;;;5033784;28;20435;-74
2022/08/20 07:05:45;;;;;;;0.70;0.63;;;22.40;79.20;;;;;;5033747;28;20450;-74
2022/08/20 07:08:15;;;;;;;0.80;0.70;;;22.30;79.60;;;;;;5034304;28;20440;-75
2022/08/20 07:10:42;;;;;;;0.70;0.70;;;22.50;79.20;;;;;;5033890;28;20501;-76
2022/08/20 07:13:10;;;;;;;0.70;0.67;;;22.50;78.70;;;;;;5033822;28;20454;-76
2022/08/20 07:15:38;;;;;;;0.70;0.50;;;22.40;78.80;;;;;;5033882;28;20505;-76
2022/08/20 07:18:06;;;;;;;0.80;0.80;;;22.50;78.60;;;;;;5033775;28;20483;-75
2022/08/20 07:20:35;;;;;;;0.70;0.60;;;22.70;78.80;;;;;;5033702;28;20449;-76
2022/08/20 07:23:02;;;;;;;0.70;0.60;;;22.60;78.00;;;;;;5033516;28;20448;-75
2022/08/20 07:25:32;;;;;;;0.70;0.60;;;22.70;78.30;;;;;;5033601;28;20451;-76
2022/08/20 07:28:01;;;;;;;0.70;0.60;;;22.80;78.40;;;;;;5033447;28;20447;-76
2022/08/20 07:33:15;;;;;;;0.70;0.60;;;22.80;78.20;;;;;;5034073;28;20403;-75
2022/08/20 07:35:42;;;;;;;0.80;0.70;;;23.00;77.50;;;;;;5033305;28;20443;-76
2022/08/20 07:38:15;;;;;;;0.70;0.70;;;23.10;76.70;;;;;;5033216;28;20625;-75
2022/08/20 07:40:42;;;;;;;0.80;0.63;;;23.10;77.20;;;;;;5033392;28;20475;-75
2022/08/20 07:43:09;;;;;;;0.70;0.60;;;23.10;76.70;;;;;;5033191;28;20996;-75
2022/08/20 07:45:36;;;;;;;0.70;0.67;;;22.90;77.00;;;;;;5033301;28;20875;-75
2022/08/20 07:48:07;;;;;;;0.70;0.67;;;22.90;77.00;;;;;;5033170;28;20546;-76
2022/08/20 07:50:35;;;;;;;0.80;0.70;;;22.80;76.60;;;;;;5032960;28;20814;-76
2022/08/20 07:53:02;;;;;;;0.70;0.70;;;22.80;76.30;;;;;;5033353;28;20459;-75
2022/08/20 07:55:29;;;;;;;0.70;0.60;;;22.90;76.60;;;;;;5033174;28;20454;-75
2022/08/20 07:57:57;;;;;;;0.80;0.70;;;23.00;76.10;;;;;;5032783;28;20826;-75
2022/08/20 08:00:24;;;;;;;0.70;0.60;;;23.10;75.50;;;;;;5033151;28;20450;-76
2022/08/20 08:02:51;;;;;;;0.70;0.60;;;23.10;75.80;;;;;;5033027;28;20505;-75
2022/08/20 08:05:18;;;;;;;0.70;0.70;;;23.20;75.50;;;;;;5033079;28;20447;-75
2022/08/20 08:07:46;;;;;;;0.70;0.70;;;23.20;75.20;;;;;;5033070;28;20443;-75
2022/08/20 08:10:17;;;;;;;0.80;0.80;;;23.10;75.00;;;;;;5032686;28;21007;-75
2022/08/20 08:12:48;;;;;;;0.83;0.73;;;23.20;76.30;;;;;;5033003;28;20558;-75
2022/08/20 08:15:18;;;;;;;0.70;0.60;;;23.30;75.50;;;;;;5032956;28;20494;-74
2022/08/20 08:17:47;;;;;;;0.80;0.70;;;23.40;74.80;;;;;;5033078;28;20437;-76
2022/08/20 08:20:15;;;;;;;0.70;0.60;;;23.50;74.30;;;;;;5032938;28;20455;-76
2022/08/20 08:22:43;;;;;;;0.70;0.67;;;23.60;74.30;;;;;;5032799;28;20521;-76
2022/08/20 08:25:12;;;;;;;0.90;0.70;;;23.80;73.70;;;;;;5032522;28;21007;-76
2022/08/20 08:27:39;;;;;;;0.70;0.70;;;24.00;73.10;;;;;;5032842;28;20450;-76
2022/08/20 08:30:08;;;;;;;0.80;0.70;;;24.20;73.30;;;;;;5032784;28;20439;-76
2022/08/20 08:32:35;;;;;;;0.70;0.60;;;24.20;72.10;;;;;;5032755;28;20467;-76
2022/08/20 08:35:07;;;;;;;1.07;0.60;;;24.30;72.30;;;;;;5032777;28;20443;-76
2022/08/20 08:37:36;;;;;;;0.70;0.60;;;24.60;72.30;;;;;;5033110;28;20442;-76
2022/08/20 08:40:04;;;;;;;0.80;0.70;;;25.00;71.30;;;;;;5036360;28;20574;-76
2022/08/20 08:42:40;;;;;;;0.70;0.70;;;24.90;69.60;;;;;;5036303;28;20529;-76
2022/08/20 08:45:09;;;;;;;0.70;0.60;;;25.00;68.90;;;;;;5036061;28;20519;-76
2022/08/20 08:47:40;;;;;;;0.80;0.70;;;24.90;69.70;;;;;;5036302;28;20490;-76
2022/08/20 08:50:09;;;;;;;0.70;0.60;;;25.10;69.60;;;;;;5036305;28;20462;-76
2022/08/20 08:52:39;;;;;;;0.70;0.60;;;25.10;68.80;;;;;;5036037;28;20471;-76
2022/08/20 08:55:15;;;;;;;0.70;0.60;;;25.20;68.50;;;;;;5036273;28;20486;-76
2022/08/20 08:57:44;;;;;;;0.80;0.63;;;25.30;68.60;;;;;;5035932;28;20868;-77
2022/08/20 09:00:16;;;;;;;0.70;0.60;;;25.40;67.70;;;;;;5035915;28;20487;-77
2022/08/20 09:02:55;;;;;;;0.70;0.70;;;25.60;68.10;;;;;;5035517;28;20877;-76
2022/08/20 09:05:27;;;;;;;0.70;0.60;;;25.90;67.60;;;;;;5035955;28;20431;-76
2022/08/20 09:07:53;;;;;;;0.70;0.70;;;26.00;67.30;;;;;;5035969;28;20431;-76
2022/08/20 09:10:20;;;;;;;0.83;0.70;;;25.90;67.20;;;;;;5035836;28;20452;-76
2022/08/20 09:12:48;;;;;;;0.70;0.60;;;25.90;67.00;;;;;;5035514;28;20789;-76
2022/08/20 09:15:15;;;;;;;0.70;0.60;;;26.10;66.30;;;;;;5036833;28;20793;-76
2022/08/20 09:17:42;;;;;;;0.70;0.60;;;26.10;65.90;;;;;;5035713;28;20998;-76
2022/08/20 09:20:10;;;;;;;0.70;0.70;;;26.20;66.00;;;;;;5035521;28;20490;-76
2022/08/20 09:22:36;;;;;;;0.70;0.60;;;26.20;65.80;;;;;;5035516;28;20459;-76
2022/08/20 09:25:04;;;;;;;0.70;0.60;;;26.10;66.10;;;;;;5035517;28;20509;-75
2022/08/20 09:27:30;;;;;;;0.70;0.60;;;26.00;65.90;;;;;;5035275;28;20947;-75
2022/08/20 09:29:58;;;;;;;0.70;0.60;;;26.00;65.70;;;;;;5035621;28;20443;-76
2022/08/20 09:32:25;;;;;;;0.80;0.60;;;25.80;66.50;;;;;;5035326;28;20467;-75
2022/08/20 09:34:55;;;;;;;1.20;0.70;;;25.60;66.60;;;;;;5035274;28;20505;-75
2022/08/20 09:37:23;;;;;;;0.70;0.53;;;25.50;67.00;;;;;;5035281;28;20865;-75
2022/08/20 09:39:50;;;;;;;0.70;0.60;;;25.50;67.20;;;;;;5035063;28;20625;-75
2022/08/20 09:42:19;;;;;;;0.70;0.60;;;25.50;67.00;;;;;;5034730;28;21001;-76
2022/08/20 09:44:46;;;;;;;0.70;0.57;;;25.50;67.10;;;;;;5035051;28;20455;-75
2022/08/20 09:47:16;;;;;;;1.00;0.60;;;25.60;66.80;;;;;;5035047;28;20451;-75
2022/08/20 09:49:43;;;;;;;0.70;0.60;;;25.80;66.80;;;;;;5034283;28;20447;-76
2022/08/20 09:52:17;;;;;;;0.70;0.50;;;25.80;65.60;;;;;;5034945;28;20476;-76
2022/08/20 09:54:44;;;;;;;0.70;0.60;;;26.00;66.00;;;;;;5035000;28;20488;-75
2022/08/20 09:57:11;;;;;;;0.70;0.60;;;26.10;65.10;;;;;;5034954;28;20447;-75
2022/08/20 09:59:38;;;;;;;0.80;0.67;;;26.10;64.80;;;;;;5034790;28;20537;-76
2022/08/20 10:02:05;;;;;;;0.70;0.60;;;26.00;65.00;;;;;;5034635;28;20479;-76
2022/08/20 10:04:33;;;;;;;0.70;0.50;;;25.90;64.90;;;;;;5034847;28;20456;-76
2022/08/20 10:07:00;;;;;;;0.70;0.60;;;25.80;65.30;;;;;;5034666;28;20446;-76
2022/08/20 10:09:26;;;;;;;0.70;0.50;;;25.80;65.50;;;;;;5034932;28;20501;-75
2022/08/20 10:11:53;;;;;;;0.70;0.53;;;25.70;65.10;;;;;;5034223;28;20974;-76
2022/08/20 10:14:20;;;;;;;0.70;0.60;;;25.70;65.40;;;;;;5034300;28;20924;-75
2022/08/20 10:16:46;;;;;;;0.70;0.60;;;25.60;65.60;;;;;;5034441;28;20538;-75
2022/08/20 10:19:13;;;;;;;0.70;0.60;;;25.50;65.60;;;;;;5034390;28;20483;-75
2022/08/20 10:21:42;;;;;;;0.70;0.50;;;25.50;65.50;;;;;;5034088;28;20471;-75
2022/08/20 10:24:08;;;;;;;0.70;0.50;;;25.50;66.10;;;;;;5034476;28;20498;-75
2022/08/20 10:26:37;;;;;;;0.70;0.60;;;25.60;66.40;;;;;;5034338;28;20448;-76
2022/08/20 10:29:04;;;;;;;0.80;0.60;;;25.50;66.80;;;;;;5034140;28;20996;-75
2022/08/20 10:31:30;;;;;;;0.70;0.60;;;25.60;66.40;;;;;;5034359;28;20470;-77
2022/08/20 10:33:57;;;;;;;0.70;0.50;;;25.50;66.50;;;;;;5034310;28;20505;-75
2022/08/20 10:36:24;;;;;;;0.70;0.60;;;25.40;66.90;;;;;;5033980;28;20930;-76
2022/08/20 10:38:52;;;;;;;0.70;0.57;;;25.20;67.50;;;;;;5035078;28;20455;-74
2022/08/20 10:41:20;;;;;;;0.70;0.50;;;25.10;68.00;;;;;;5034033;28;20468;-76
2022/08/20 10:43:46;;;;;;;0.70;0.50;;;24.90;68.00;;;;;;5034044;28;20451;-76
2022/08/20 10:46:14;;;;;;;0.70;0.50;;;24.80;68.20;;;;;;5033982;28;20497;-75
2022/08/20 10:48:41;;;;;;;0.70;0.50;;;24.50;69.20;;;;;;5033651;28;20458;-75
2022/08/20 10:51:07;;;;;;;0.70;0.60;;;24.30;69.80;;;;;;5033846;28;20873;-74
2022/08/20 10:53:35;;;;;;;0.70;0.50;;;24.20;70.20;;;;;;5033868;28;20447;-74
2022/08/20 10:56:03;;;;;;;0.70;0.50;;;24.20;70.50;;;;;;5033799;28;20448;-74
2022/08/20 10:58:30;;;;;;;0.70;0.50;;;24.20;70.10;;;;;;5033746;28;20455;-74
2022/08/20 11:00:57;;;;;;;0.70;0.50;;;24.30;70.00;;;;;;5033255;28;20491;-74
2022/08/20 11:03:23;;;;;;;0.70;0.50;;;24.40;69.80;;;;;;5033905;28;20903;-76
2022/08/20 11:05:50;;;;;;;0.70;0.50;;;24.50;69.00;;;;;;5033683;28;20444;-75
2022/08/20 11:08:17;;;;;;;0.70;0.50;;;24.70;69.60;;;;;;5033746;28;20872;-75
2022/08/20 11:10:43;;;;;;;0.80;0.50;;;24.90;68.20;;;;;;5033219;28;20993;-76
2022/08/20 11:13:11;;;;;;;0.70;0.50;;;25.00;68.10;;;;;;5033187;28;20502;-76
2022/08/20 11:15:41;;;;;;;0.70;0.57;;;25.00;68.00;;;;;;5033222;28;20867;-74
2022/08/20 11:18:08;;;;;;;0.80;0.70;;;25.00;66.80;;;;;;5034322;28;20447;-75
2022/08/20 11:20:35;;;;;;;0.70;0.50;;;24.80;67.50;;;;;;5033245;28;20487;-75
2022/08/20 11:23:02;;;;;;;0.70;0.53;;;24.50;68.20;;;;;;5033510;28;20447;-75
2022/08/20 11:25:29;;;;;;;0.70;0.50;;;24.50;68.40;;;;;;5033131;28;20957;-75
2022/08/20 11:27:57;;;;;;;0.70;0.50;;;24.40;68.50;;;;;;5033428;28;20452;-74
2022/08/20 11:30:27;;;;;;;0.70;0.50;;;24.30;68.90;;;;;;5033275;28;20448;-74
2022/08/20 11:32:54;;;;;;;0.70;0.50;;;24.10;68.90;;;;;;5033465;28;20436;-74
2022/08/20 11:35:22;;;;;;;0.70;0.50;;;24.10;70.00;;;;;;5033312;28;20503;-74
2022/08/20 11:37:49;;;;;;;0.80;0.50;;;24.00;71.00;;;;;;5033385;28;20454;-74
2022/08/20 11:40:16;;;;;;;0.70;0.50;;;24.10;71.20;;;;;;5033267;28;20533;-74
2022/08/20 11:42:43;;;;;;;0.70;0.50;;;24.10;71.80;;;;;;5033174;28;20863;-75
2022/08/20 11:45:10;;;;;;;0.90;0.60;;;24.10;72.80;;;;;;5033267;28;20451;-74
2022/08/20 11:47:38;;;;;;;0.70;0.50;;;24.20;73.30;;;;;;5032908;28;20957;-73
2022/08/20 11:50:08;;;;;;;0.70;0.60;;;24.20;73.30;;;;;;5033192;28;20444;-74
2022/08/20 11:52:35;;;;;;;0.70;0.50;;;24.30;72.90;;;;;;5033067;28;20467;-74
2022/08/20 11:55:04;;;;;;;0.70;0.50;;;24.20;73.20;;;;;;5032767;28;20945;-74
2022/08/20 11:57:33;;;;;;;1.20;1.10;;;24.20;73.50;;;;;;5033396;28;20451;-73
2022/08/20 12:00:03;;;;;;;0.70;0.53;;;24.20;73.20;;;;;;5033068;28;20479;-74
2022/08/20 12:02:31;;;;;;;0.80;0.50;;;24.20;73.40;;;;;;5032812;28;20995;-75
2022/08/20 12:04:59;;;;;;;0.80;0.73;;;24.30;73.50;;;;;;5033096;28;20497;-73
2022/08/20 12:07:25;;;;;;;1.33;1.23;;;24.30;73.20;;;;;;5032992;28;20443;-74
2022/08/20 12:09:53;;;;;;;0.70;0.50;;;24.40;71.50;;;;;;5033264;28;20444;-74
2022/08/20 12:12:22;;;;;;;0.70;0.50;;;24.40;71.30;;;;;;5032812;28;20468;-73
2022/08/20 12:14:49;;;;;;;0.70;0.50;;;24.60;71.00;;;;;;5036587;28;20969;-74
2022/08/20 12:17:22;;;;;;;0.70;0.60;;;24.70;70.40;;;;;;5036790;28;20501;-73
2022/08/20 12:19:50;;;;;;;0.70;0.50;;;24.80;70.10;;;;;;5036767;28;20510;-74
2022/08/20 12:22:19;;;;;;;0.70;0.60;;;24.90;70.10;;;;;;5036618;28;20471;-74
2022/08/20 12:24:46;;;;;;;0.70;0.50;;;24.90;69.60;;;;;;5036785;28;20456;-75
2022/08/20 12:27:14;;;;;;;0.70;0.50;;;24.90;69.20;;;;;;5036641;28;20447;-74
2022/08/20 12:29:42;;;;;;;0.70;0.50;;;24.90;70.00;;;;;;5036673;28;20994;-74
2022/08/20 12:32:10;;;;;;;0.70;0.50;;;24.90;69.50;;;;;;5036602;28;20530;-75
2022/08/20 12:34:38;;;;;;;0.70;0.60;;;25.00;69.10;;;;;;5036616;28;20462;-75
2022/08/20 12:37:08;;;;;;;0.70;0.50;;;25.20;69.00;;;;;;5036702;28;20454;-76
2022/08/20 12:39:38;;;;;;;0.70;0.50;;;25.30;68.70;;;;;;5036473;28;20479;-76
2022/08/20 12:42:05;;;;;;;0.70;0.60;;;25.40;68.00;;;;;;5036504;28;20570;-75
2022/08/20 12:44:32;;;;;;;0.70;0.50;;;25.50;68.80;;;;;;5036001;28;20943;-75
2022/08/20 12:47:06;;;;;;;0.70;0.50;;;25.60;67.30;;;;;;5035983;28;20939;-76
2022/08/20 12:49:33;;;;;;;0.70;0.50;;;25.50;66.80;;;;;;5036236;28;20443;-76
2022/08/20 12:52:00;;;;;;;0.70;0.50;;;25.40;68.20;;;;;;5035804;28;21008;-76
2022/08/20 12:54:27;;;;;;;0.70;0.60;;;25.50;67.70;;;;;;5036124;28;20451;-76
2022/08/20 12:56:55;;;;;;;0.70;0.50;;;25.50;67.30;;;;;;5036060;28;20545;-74
2022/08/20 12:59:23;;;;;;;0.70;0.60;;;25.50;67.30;;;;;;5035969;28;20443;-75
2022/08/20 13:01:50;;;;;;;0.70;0.50;;;25.20;68.30;;;;;;5035523;28;20566;-75
2022/08/20 13:04:17;;;;;;;0.70;0.50;;;24.90;69.60;;;;;;5035687;28;20436;-76
2022/08/20 13:06:43;;;;;;;0.70;0.60;;;24.60;71.40;;;;;;5035949;28;20452;-76
2022/08/20 13:09:11;;;;;;;0.70;0.60;;;24.50;72.40;;;;;;5035910;28;20470;-76
2022/08/20 13:11:37;;;;;;;0.70;0.50;;;24.50;72.70;;;;;;5035804;28;20464;-76
2022/08/20 13:14:05;;;;;;;0.70;0.50;;;24.10;73.80;;;;;;5035852;28;20513;-76
2022/08/20 13:16:32;;;;;;;0.70;0.50;;;24.30;74.30;;;;;;5035539;28;20497;-76
2022/08/20 13:18:59;;;;;;;0.70;0.50;;;24.30;74.10;;;;;;5035634;28;20454;-76
2022/08/20 13:21:26;;;;;;;0.70;0.60;;;24.50;74.60;;;;;;5035529;28;20487;-76
2022/08/20 13:23:52;;;;;;;0.70;0.60;;;24.60;73.60;;;;;;5035547;28;20447;-75
2022/08/20 13:26:19;;;;;;;0.70;0.50;;;24.60;74.10;;;;;;5035494;28;20443;-76
2022/08/20 13:28:46;;;;;;;0.70;0.60;;;24.90;73.80;;;;;;5035288;28;20965;-75
2022/08/20 13:31:14;;;;;;;0.70;0.50;;;25.00;72.20;;;;;;5035506;28;20517;-75
2022/08/20 13:33:40;;;;;;;0.70;0.60;;;25.30;70.80;;;;;;5035161;28;20931;-73
2022/08/20 13:36:07;;;;;;;0.70;0.50;;;25.40;68.20;;;;;;5035502;28;20455;-74
2022/08/20 13:38:34;;;;;;;0.70;0.50;;;25.50;67.50;;;;;;5035365;28;20450;-75
2022/08/20 13:41:01;;;;;;;0.70;0.50;;;25.80;65.20;;;;;;5035229;28;20483;-75
2022/08/20 13:43:28;;;;;;;0.80;0.60;;;26.20;66.80;;;;;;5035409;28;20443;-75
2022/08/20 13:45:54;;;;;;;0.70;0.50;;;26.50;65.10;;;;;;5035268;28;20454;-75
2022/08/20 13:48:22;;;;;;;0.70;0.50;;;27.00;62.70;;;;;;5035191;28;20514;-75
2022/08/20 13:50:49;;;;;;;0.70;0.50;;;27.30;60.40;;;;;;5035075;28;20513;-73
2022/08/20 13:53:16;;;;;;;0.70;0.50;;;27.60;59.70;;;;;;5035042;28;20482;-71
2022/08/20 13:55:43;;;;;;;0.80;0.70;;;27.70;58.60;;;;;;5035238;28;20447;-72
2022/08/20 13:58:10;;;;;;;0.70;0.50;;;27.70;58.90;;;;;;5034916;28;20451;-71
2022/08/20 14:00:37;;;;;;;0.70;0.60;;;27.60;58.30;;;;;;5034792;28;20549;-72
2022/08/20 14:03:05;;;;;;;0.70;0.53;;;27.50;58.40;;;;;;5034951;28;20448;-72
2022/08/20 14:05:36;;;;;;;3.20;1.57;;;27.60;59.00;;;;;;5034919;28;20443;-72
2022/08/20 14:08:09;;;;;;;2.10;0.80;;;27.60;58.60;;;;;;5035074;28;20432;-75
2022/08/20 14:10:37;;;;;;;0.70;0.60;;;27.50;61.20;;;;;;5034943;28;20474;-75
2022/08/20 14:13:05;;;;;;;0.70;0.60;;;27.40;66.00;;;;;;5034915;28;20454;-72
2022/08/20 14:15:32;;;;;;;0.70;0.60;;;27.10;66.90;;;;;;5034911;28;20491;-74
2022/08/20 14:17:59;;;;;;;0.70;0.50;;;26.80;66.80;;;;;;5034563;28;20865;-73
2022/08/20 14:20:28;;;;;;;0.70;0.50;;;26.40;67.90;;;;;;5034591;28;20479;-73
2022/08/20 14:22:57;;;;;;;0.70;0.60;;;25.90;69.20;;;;;;5034823;28;20498;-74
2022/08/20 14:25:24;;;;;;;0.70;0.60;;;25.40;71.10;;;;;;5034683;28;20444;-72
2022/08/20 14:27:52;;;;;;;0.70;0.53;;;25.40;71.30;;;;;;5034677;28;20470;-72
2022/08/20 14:30:21;;;;;;;0.70;0.50;;;25.20;71.70;;;;;;5034406;28;20443;-73
2022/08/20 14:32:48;;;;;;;0.70;0.50;;;25.00;72.80;;;;;;5033997;28;20942;-72
2022/08/20 14:35:15;;;;;;;0.80;0.67;;;24.90;73.20;;;;;;5034456;28;20826;-72
2022/08/20 14:37:44;;;;;;;0.90;0.60;;;24.50;74.20;;;;;;5034289;28;20451;-71
2022/08/20 14:40:14;;;;;;;0.70;0.53;;;24.40;74.40;;;;;;5034152;28;20479;-72
2022/08/20 14:42:41;;;;;;;0.70;0.50;;;24.30;74.20;;;;;;5034170;28;20517;-72
2022/08/20 14:45:10;;;;;;;0.70;0.60;;;24.30;74.40;;;;;;5034139;28;20443;-72
2022/08/20 14:47:39;;;;;;;0.70;0.57;;;24.10;74.70;;;;;;5034190;28;20451;-72
2022/08/20 14:50:09;;;;;;;0.70;0.60;;;24.30;73.30;;;;;;5034050;28;20509;-72
2022/08/20 14:52:36;;;;;;;0.70;0.60;;;24.70;71.90;;;;;;5034000;28;20479;-73
2022/08/20 14:55:03;;;;;;;0.90;0.60;;;25.10;71.20;;;;;;5034199;28;20459;-72
2022/08/20 14:57:32;;;;;;;0.70;0.50;;;25.10;71.60;;;;;;5033874;28;20454;-72
2022/08/20 14:59:59;;;;;;;0.70;0.60;;;25.10;72.20;;;;;;5033804;28;20448;-72
2022/08/20 15:02:25;;;;;;;0.70;0.60;;;25.40;72.10;;;;;;5033679;28;20503;-73
2022/08/20 15:04:52;;;;;;;0.80;0.60;;;26.20;71.60;;;;;;5034162;28;20501;-72
2022/08/20 15:07:23;;;;;;;0.70;0.50;;;26.20;71.20;;;;;;5033437;28;20448;-72
2022/08/20 15:09:50;;;;;;;0.73;0.53;;;25.90;71.10;;;;;;5033510;28;20930;-72
2022/08/20 15:12:17;;;;;;;0.70;0.50;;;25.70;71.20;;;;;;5033771;28;20471;-72
2022/08/20 15:14:45;;;;;;;0.77;0.57;;;26.10;70.60;;;;;;5033633;28;20447;-73
2022/08/20 15:17:17;;;;;;;0.70;0.60;;;27.20;66.50;;;;;;5035078;28;20838;-73
2022/08/20 15:19:43;;;;;;;0.70;0.50;;;28.00;62.80;;;;;;5033657;28;20486;-72
2022/08/20 15:22:10;;;;;;;0.70;0.60;;;28.30;61.50;;;;;;5033476;28;20491;-72
2022/08/20 15:24:37;;;;;;;0.70;0.50;;;28.20;61.90;;;;;;5033485;28;20588;-72
2022/08/20 15:27:12;;;;;;;0.70;0.50;;;28.50;58.10;;;;;;5033418;28;20455;-72
2022/08/20 15:29:39;;;;;;;0.70;0.60;;;29.10;62.00;;;;;;5033432;28;20510;-73
2022/08/20 15:32:07;;;;;;;0.70;0.60;;;29.90;61.70;;;;;;5033384;28;20538;-72
2022/08/20 15:34:34;;;;;;;0.70;0.50;;;30.70;59.70;;;;;;5033325;28;20497;-72
2022/08/20 15:37:07;;;;;;;0.70;0.50;;;31.40;56.90;;;;;;5033383;28;20443;-72
2022/08/20 15:39:33;;;;;;;1.00;0.60;;;31.70;56.80;;;;;;5033311;28;20423;-74
2022/08/20 15:42:00;;;;;;;0.70;0.57;;;32.40;55.70;;;;;;5033201;28;20483;-75
2022/08/20 15:44:27;;;;;;;0.70;0.50;;;32.60;53.90;;;;;;5033327;28;20478;-74
2022/08/20 15:46:53;;;;;;;0.70;0.50;;;32.00;54.20;;;;;;5032946;28;20459;-75
2022/08/20 15:49:23;;;;;;;0.70;0.50;;;31.00;56.00;;;;;;5036621;28;20447;-75
2022/08/20 15:51:50;;;;;;;0.70;0.50;;;30.00;57.90;;;;;;5036994;28;20979;-75
2022/08/20 15:54:20;;;;;;;0.70;0.50;;;29.40;59.60;;;;;;5037295;28;20455;-75
2022/08/20 15:56:57;;;;;;;0.70;0.57;;;29.00;60.30;;;;;;5038157;28;20844;-75